Time;durP1;ratioP1;P1;durP2;ratioP2;P2;SDS_P1;SDS_P2;PMS_P1;PMS_P2;Temp;Humidity;BMP_temperature;BMP_pressure;BME280_temperature;BME280_humidity;BME280_pressure;Samples;Min_cycle;Max_cycle;Signal;HPM_P1;HPM_P2
2022/06/13 00:00:36;;;;;;;0.20;0.20;;;13.30;99.90;;;;;;5089224;28;20087;-81
2022/06/13 00:03:03;;;;;;;0.20;0.20;;;13.30;99.90;;;;;;5072331;28;20040;-79
2022/06/13 00:05:29;;;;;;;0.20;0.20;;;13.30;99.90;;;;;;5072673;28;20048;-80
2022/06/13 00:07:56;;;;;;;0.20;0.20;;;13.20;99.90;;;;;;5088950;28;20163;-80
2022/06/13 00:10:23;;;;;;;0.15;0.15;;;13.20;99.90;;;;;;5056223;28;20037;-81
2022/06/13 00:12:49;;;;;;;0.10;0.10;;;13.20;99.90;;;;;;5072172;28;20106;-80
2022/06/13 00:15:16;;;;;;;0.10;0.10;;;13.20;99.90;;;;;;5093151;28;20075;-79
2022/06/13 00:17:43;;;;;;;0.40;0.30;;;13.10;99.90;;;;;;5076509;28;20032;-80
2022/06/13 00:20:11;;;;;;;0.20;0.20;;;13.10;99.90;;;;;;5092777;28;20772;-79
2022/06/13 00:22:38;;;;;;;0.20;0.10;;;13.00;99.90;;;;;;5076476;28;20051;-81
2022/06/13 00:25:06;;;;;;;0.22;0.10;;;13.00;99.90;;;;;;5075818;28;20040;-80
2022/06/13 00:27:33;;;;;;;0.13;0.10;;;12.90;99.90;;;;;;5093097;28;20041;-81
2022/06/13 00:30:00;;;;;;;0.32;0.20;;;12.90;99.90;;;;;;5075644;28;20048;-81
2022/06/13 00:32:26;;;;;;;0.20;0.20;;;12.80;99.90;;;;;;5076223;28;20036;-80
2022/06/13 00:34:53;;;;;;;0.65;0.35;;;12.70;99.90;;;;;;5086968;28;20468;-80
2022/06/13 00:37:20;;;;;;;0.28;0.20;;;12.70;99.90;;;;;;5059328;28;20058;-80
2022/06/13 00:39:47;;;;;;;0.10;0.10;;;12.60;99.90;;;;;;5091011;28;20401;-80
2022/06/13 00:42:20;;;;;;;0.17;0.17;;;12.60;99.90;;;;;;5072295;28;20105;-82
2022/06/13 00:45:07;;;;;;;0.20;0.20;;;12.60;99.90;;;;;;5072697;28;20040;-81
2022/06/13 00:47:37;;;;;;;0.25;0.20;;;12.50;99.90;;;;;;5056076;28;20040;-81
2022/06/13 00:50:06;;;;;;;0.03;0.03;;;12.50;99.90;;;;;;5060153;28;20117;-80
2022/06/13 00:52:46;;;;;;;0.60;0.40;;;12.50;99.90;;;;;;5092175;28;20048;-81
2022/06/13 00:55:18;;;;;;;0.20;0.20;;;12.50;99.90;;;;;;5092477;28;20454;-80
2022/06/13 00:57:45;;;;;;;0.45;0.28;;;12.40;99.90;;;;;;5075748;28;20032;-81
2022/06/13 01:00:15;;;;;;;0.10;0.10;;;12.50;99.90;;;;;;5075177;28;20073;-79
2022/06/13 01:02:46;;;;;;;0.10;0.10;;;12.40;99.90;;;;;;5092049;28;20090;-80
2022/06/13 01:05:16;;;;;;;0.10;0.10;;;12.50;99.90;;;;;;5075351;28;20071;-81
2022/06/13 01:07:43;;;;;;;0.20;0.20;;;12.50;99.90;;;;;;5075654;28;20048;-80
2022/06/13 01:12:55;;;;;;;0.43;0.20;;;12.50;99.90;;;;;;5078065;28;20071;-80
2022/06/13 01:16:11;;;;;;;0.25;0.25;;;12.50;99.90;;;;;;5075340;28;20036;-80
2022/06/13 01:18:52;;;;;;;0.22;0.20;;;12.50;99.90;;;;;;5075648;28;20037;-80
2022/06/13 01:21:43;;;;;;;0.25;0.25;;;12.60;99.90;;;;;;5091725;28;20040;-80
2022/06/13 01:24:11;;;;;;;0.65;0.28;;;12.60;99.90;;;;;;5091826;28;20094;-81
2022/06/13 01:27:11;;;;;;;0.17;0.17;;;12.60;99.90;;;;;;5074245;28;20124;-80
2022/06/13 01:29:57;;;;;;;0.20;0.20;;;12.70;99.90;;;;;;5091632;28;20405;-80
2022/06/13 01:32:32;;;;;;;0.10;0.10;;;12.60;99.90;;;;;;5074593;28;20493;-80
2022/06/13 01:35:20;;;;;;;0.10;0.10;;;12.70;99.90;;;;;;5074942;28;20516;-81
2022/06/13 01:38:09;;;;;;;0.20;0.20;;;12.70;99.90;;;;;;5057823;28;20740;-80
2022/06/13 01:40:51;;;;;;;0.10;0.10;;;12.70;99.90;;;;;;5055272;28;20044;-80
2022/06/13 01:43:49;;;;;;;0.20;0.20;;;12.70;99.90;;;;;;5054942;28;20045;-80
2022/06/13 01:46:51;;;;;;;0.20;0.20;;;12.60;99.90;;;;;;5070999;28;20041;-80
2022/06/13 01:49:47;;;;;;;0.22;0.20;;;12.60;99.90;;;;;;5063423;28;20119;-82
2022/06/13 01:52:28;;;;;;;0.20;0.20;;;12.60;99.90;;;;;;5049930;28;20056;-81
2022/06/13 01:55:14;;;;;;;0.13;0.13;;;12.50;99.90;;;;;;5071557;28;20053;-82
2022/06/13 01:57:51;;;;;;;0.30;0.30;;;12.50;99.90;;;;;;5054975;28;20036;-81
2022/06/13 02:00:29;;;;;;;0.32;0.30;;;12.60;99.90;;;;;;5070624;28;20051;-81
2022/06/13 02:03:05;;;;;;;0.75;0.28;;;12.60;99.90;;;;;;5070827;28;20124;-81
2022/06/13 02:05:36;;;;;;;;;;;12.70;99.90;;;;;;5062927;28;20041;-82
2022/06/13 02:08:29;;;;;;;0.00;0.00;;;12.70;99.90;;;;;;5074403;28;20053;-82
2022/06/13 02:11:04;;;;;;;0.10;0.10;;;12.70;99.90;;;;;;5091200;28;20044;-80
2022/06/13 02:13:39;;;;;;;0.28;0.20;;;12.70;99.90;;;;;;5073588;28;20116;-81
2022/06/13 02:16:14;;;;;;;0.32;0.20;;;12.70;99.90;;;;;;5074192;28;20070;-80
2022/06/13 02:19:13;;;;;;;0.10;0.10;;;12.70;99.90;;;;;;5090658;28;20040;-80
2022/06/13 02:21:46;;;;;;;0.10;0.10;;;12.80;99.90;;;;;;5073764;28;20110;-80
2022/06/13 02:24:23;;;;;;;0.20;0.20;;;12.80;99.90;;;;;;5090222;28;20421;-81
2022/06/13 02:26:54;;;;;;;0.60;0.20;;;12.80;99.90;;;;;;5073815;28;20044;-81
2022/06/13 02:29:28;;;;;;;0.30;0.20;;;12.90;99.90;;;;;;5073830;28;20048;-83
2022/06/13 02:32:06;;;;;;;0.10;0.10;;;12.90;99.90;;;;;;5073928;28;20424;-80
2022/06/13 02:34:38;;;;;;;0.45;0.17;;;12.90;99.90;;;;;;5074020;28;20051;-81
2022/06/13 02:37:20;;;;;;;0.00;0.00;;;12.90;99.90;;;;;;5089395;28;20044;-80
2022/06/13 02:39:56;;;;;;;0.10;0.10;;;13.00;99.90;;;;;;5073757;28;20036;-82
2022/06/13 02:42:28;;;;;;;0.30;0.20;;;13.00;99.90;;;;;;5073321;28;20040;-80
2022/06/13 02:45:03;;;;;;;0.10;0.10;;;13.00;99.90;;;;;;5073567;28;20044;-81
2022/06/13 02:47:46;;;;;;;0.10;0.10;;;13.00;99.90;;;;;;5089884;28;20052;-80
2022/06/13 02:50:31;;;;;;;0.25;0.20;;;13.00;99.90;;;;;;5090067;28;20074;-81
2022/06/13 02:53:05;;;;;;;0.20;0.20;;;13.00;99.90;;;;;;5072941;28;20501;-80
2022/06/13 02:55:41;;;;;;;0.35;0.35;;;13.00;99.90;;;;;;5089699;28;20044;-81
2022/06/13 02:58:18;;;;;;;0.30;0.30;;;13.00;99.90;;;;;;5073468;28;20051;-79
2022/06/13 03:00:50;;;;;;;0.20;0.20;;;13.00;99.90;;;;;;5090350;28;20088;-82
2022/06/13 03:03:41;;;;;;;0.13;0.10;;;13.00;99.90;;;;;;5072738;28;20052;-82
2022/06/13 03:06:20;;;;;;;0.28;0.20;;;13.10;99.90;;;;;;5089545;28;20135;-82
2022/06/13 03:09:05;;;;;;;0.70;0.20;;;13.10;99.90;;;;;;5086341;28;20488;-80
2022/06/13 03:11:55;;;;;;;0.10;0.10;;;13.10;99.90;;;;;;5052746;28;20114;-80
2022/06/13 03:14:58;;;;;;;0.10;0.10;;;13.10;99.90;;;;;;5068871;28;20072;-82
2022/06/13 03:17:44;;;;;;;0.10;0.10;;;13.10;99.90;;;;;;4992779;28;20037;-80
2022/06/13 03:20:13;;;;;;;0.17;0.17;;;13.10;99.90;;;;;;5072460;28;20052;-80
2022/06/13 03:22:53;;;;;;;0.00;0.00;;;13.10;99.90;;;;;;5088955;28;20497;-81
2022/06/13 03:25:38;;;;;;;0.38;0.30;;;13.20;99.90;;;;;;5088801;28;20456;-81
2022/06/13 03:28:12;;;;;;;0.10;0.10;;;13.20;99.90;;;;;;5072399;28;20177;-80
2022/06/13 03:30:44;;;;;;;0.00;0.00;;;13.10;99.90;;;;;;5072346;28;20048;-81
2022/06/13 03:33:40;;;;;;;0.35;0.28;;;13.20;99.90;;;;;;5072642;28;20385;-80
2022/06/13 03:36:48;;;;;;;0.43;0.28;;;13.20;99.90;;;;;;5089647;28;20048;-81
2022/06/13 03:39:19;;;;;;;0.20;0.20;;;13.20;99.90;;;;;;5068036;28;20048;-80
2022/06/13 03:42:01;;;;;;;0.20;0.20;;;13.20;99.90;;;;;;5073092;28;20037;-80
2022/06/13 03:44:33;;;;;;;0.30;0.30;;;13.20;99.90;;;;;;5089610;28;20098;-80
2022/06/13 03:47:09;;;;;;;0.20;0.20;;;13.20;99.90;;;;;;5072759;28;20045;-81
2022/06/13 03:49:51;;;;;;;0.20;0.20;;;13.10;99.90;;;;;;5075181;28;20064;-80
2022/06/13 03:52:19;;;;;;;0.05;0.05;;;13.10;99.90;;;;;;5093246;28;20040;-81
2022/06/13 03:54:59;;;;;;;0.20;0.20;;;13.20;99.90;;;;;;5076752;28;20044;-81
2022/06/13 03:57:42;;;;;;;0.30;0.28;;;13.10;99.90;;;;;;5093563;28;20040;-80
2022/06/13 04:00:15;;;;;;;0.20;0.20;;;13.20;99.90;;;;;;5093524;28;20039;-80
2022/06/13 04:02:44;;;;;;;1.17;0.55;;;13.10;99.90;;;;;;5076881;28;20036;-81
2022/06/13 04:05:36;;;;;;;0.55;0.22;;;13.10;99.90;;;;;;5093089;28;20079;-81
2022/06/13 04:08:07;;;;;;;0.30;0.30;;;13.10;99.90;;;;;;5076466;28;20524;-80
2022/06/13 04:11:04;;;;;;;0.85;0.38;;;13.20;99.90;;;;;;5077020;28;20463;-82
2022/06/13 04:13:50;;;;;;;;;;;13.20;99.90;;;;;;5057628;28;20048;-81
2022/06/13 04:16:54;;;;;;;0.15;0.15;;;13.20;99.90;;;;;;5093412;28;19920;-81
2022/06/13 04:19:28;;;;;;;0.15;0.13;;;13.20;99.90;;;;;;5055830;28;20048;-81
2022/06/13 04:22:22;;;;;;;0.35;0.28;;;13.20;99.90;;;;;;5076423;28;20037;-80
2022/06/13 04:24:55;;;;;;;0.10;0.10;;;13.20;99.90;;;;;;5076174;28;20044;-81
2022/06/13 04:27:23;;;;;;;0.30;0.20;;;13.20;99.90;;;;;;5076386;28;20086;-81
2022/06/13 04:30:14;;;;;;;0.10;0.10;;;13.20;99.90;;;;;;5092273;28;20122;-81
2022/06/13 04:32:52;;;;;;;1.17;0.20;;;13.30;99.90;;;;;;5092185;28;20036;-81
2022/06/13 04:35:20;;;;;;;0.15;0.15;;;13.30;99.90;;;;;;5076163;28;20080;-80
2022/06/13 04:37:49;;;;;;;0.10;0.10;;;13.30;99.90;;;;;;5075981;28;20029;-80
2022/06/13 04:40:25;;;;;;;0.47;0.30;;;13.40;99.90;;;;;;5076011;28;20052;-81
2022/06/13 04:42:53;;;;;;;0.28;0.20;;;13.40;99.90;;;;;;5075556;28;20041;-80
2022/06/13 04:45:28;;;;;;;0.20;0.20;;;13.40;99.90;;;;;;5092723;28;20051;-80
2022/06/13 04:47:57;;;;;;;0.20;0.20;;;13.40;99.90;;;;;;5089920;28;20044;-80
2022/06/13 04:50:34;;;;;;;0.10;0.10;;;13.40;99.90;;;;;;5061728;28;20124;-80
2022/06/13 04:53:03;;;;;;;0.10;0.10;;;13.40;99.90;;;;;;5055484;28;20052;-81
2022/06/13 04:55:52;;;;;;;0.10;0.10;;;13.40;99.90;;;;;;5055446;28;20044;-80
2022/06/13 04:58:34;;;;;;;0.30;0.30;;;13.40;99.90;;;;;;5055733;28;20060;-80
2022/06/13 05:01:15;;;;;;;0.73;0.38;;;13.50;99.90;;;;;;5054373;28;20040;-82
2022/06/13 05:03:43;;;;;;;0.20;0.20;;;13.40;99.90;;;;;;5088743;28;20045;-80
2022/06/13 05:06:38;;;;;;;0.20;0.20;;;13.50;99.90;;;;;;5039871;28;20033;-80
2022/06/13 05:09:10;;;;;;;0.05;0.05;;;13.50;99.90;;;;;;5071848;28;20036;-81
2022/06/13 05:11:37;;;;;;;0.25;0.20;;;13.60;99.90;;;;;;5087836;28;20041;-80
2022/06/13 05:14:29;;;;;;;0.10;0.10;;;13.60;99.90;;;;;;5092461;28;20040;-80
2022/06/13 05:17:14;;;;;;;0.10;0.10;;;13.60;99.90;;;;;;5075642;28;20047;-80
2022/06/13 05:19:46;;;;;;;0.30;0.15;;;13.80;99.90;;;;;;5075334;28;20032;-81
2022/06/13 05:22:30;;;;;;;0.38;0.30;;;13.80;99.90;;;;;;5091508;28;20052;-80
2022/06/13 05:25:27;;;;;;;0.10;0.10;;;13.90;99.90;;;;;;5075217;28;20037;-80
2022/06/13 05:27:54;;;;;;;0.20;0.20;;;14.00;99.90;;;;;;5074758;28;20044;-80
2022/06/13 05:30:22;;;;;;;0.22;0.17;;;14.00;99.90;;;;;;5074942;28;20083;-81
2022/06/13 05:32:49;;;;;;;0.10;0.10;;;14.10;99.90;;;;;;5074621;28;20036;-82
2022/06/13 05:35:20;;;;;;;0.20;0.20;;;14.10;99.90;;;;;;5091556;28;20037;-80
2022/06/13 05:37:48;;;;;;;0.20;0.10;;;14.30;99.90;;;;;;5091368;28;20039;-80
2022/06/13 05:40:17;;;;;;;0.10;0.10;;;14.30;99.90;;;;;;5074604;28;20064;-80
2022/06/13 05:42:48;;;;;;;0.10;0.10;;;14.30;99.90;;;;;;5090958;28;20556;-80
2022/06/13 05:45:17;;;;;;;0.22;0.22;;;14.30;99.90;;;;;;5074869;28;20523;-81
2022/06/13 05:47:46;;;;;;;0.43;0.30;;;14.30;99.90;;;;;;5074500;28;20493;-80
2022/06/13 05:50:22;;;;;;;0.15;0.10;;;14.40;99.90;;;;;;5091103;28;20040;-80
2022/06/13 05:52:49;;;;;;;0.10;0.10;;;14.30;99.90;;;;;;5073929;28;20080;-80
2022/06/13 05:55:16;;;;;;;0.15;0.15;;;14.40;99.90;;;;;;5074520;28;20458;-80
2022/06/13 05:57:43;;;;;;;0.00;0.00;;;14.30;99.90;;;;;;5057864;28;20043;-80
2022/06/13 06:00:20;;;;;;;0.10;0.10;;;14.40;99.90;;;;;;5074507;28;20036;-80
2022/06/13 06:02:47;;;;;;;0.10;0.10;;;14.30;99.90;;;;;;5090501;28;20052;-80
2022/06/13 06:05:14;;;;;;;0.30;0.20;;;14.30;99.90;;;;;;5090988;28;20048;-82
2022/06/13 06:07:41;;;;;;;0.10;0.10;;;14.30;99.90;;;;;;5073977;28;20041;-80
2022/06/13 06:10:17;;;;;;;0.10;0.10;;;14.30;99.90;;;;;;5057509;28;20043;-79
2022/06/13 06:12:43;;;;;;;0.10;0.10;;;14.40;99.90;;;;;;5070895;28;20044;-81
2022/06/13 06:15:10;;;;;;;0.20;0.20;;;14.40;99.90;;;;;;5081776;28;20029;-79
2022/06/13 06:17:37;;;;;;;0.10;0.10;;;14.40;99.90;;;;;;5072958;28;20040;-83
2022/06/13 06:20:04;;;;;;;0.03;0.03;;;14.40;99.90;;;;;;5057274;28;20064;-80
2022/06/13 06:22:31;;;;;;;0.13;0.13;;;14.40;99.90;;;;;;5074075;28;20041;-81
2022/06/13 06:24:58;;;;;;;0.20;0.20;;;14.40;99.90;;;;;;5073258;28;20050;-80
2022/06/13 06:27:24;;;;;;;0.00;0.00;;;14.50;99.90;;;;;;5050897;28;20127;-82
2022/06/13 06:29:51;;;;;;;0.10;0.10;;;14.60;99.90;;;;;;5053846;28;20041;-83
2022/06/13 06:32:18;;;;;;;0.03;0.03;;;14.80;99.90;;;;;;5048782;28;20137;-83
2022/06/13 06:34:44;;;;;;;0.00;0.00;;;15.00;99.90;;;;;;5056067;28;20102;-83
2022/06/13 06:37:11;;;;;;;0.03;0.03;;;15.10;99.90;;;;;;5064049;28;20458;-83
2022/06/13 06:39:38;;;;;;;0.05;0.05;;;15.10;99.90;;;;;;5073739;28;20613;-83
2022/06/13 06:42:05;;;;;;;0.22;0.17;;;15.00;99.90;;;;;;5082892;28;20474;-81
2022/06/13 06:44:31;;;;;;;0.30;0.10;;;14.90;99.90;;;;;;5074371;28;20090;-83
2022/06/13 06:46:58;;;;;;;0.10;0.10;;;15.00;99.90;;;;;;5075083;28;20036;-81
2022/06/13 06:49:25;;;;;;;0.25;0.10;;;15.20;99.90;;;;;;5072408;28;20048;-84
2022/06/13 06:51:51;;;;;;;0.10;0.10;;;15.30;99.90;;;;;;5038068;28;20032;-80
2022/06/13 06:59:54;;;;;;;0.03;0.03;;;15.60;99.90;;;;;;5069306;28;20453;-82
2022/06/13 07:02:26;;;;;;;0.10;0.10;;;15.70;99.90;;;;;;5045378;28;20045;-81
2022/06/13 07:05:00;;;;;;;0.20;0.20;;;15.80;99.90;;;;;;5072685;28;20052;-80
2022/06/13 07:07:27;;;;;;;0.05;0.05;;;15.50;99.90;;;;;;5099577;28;20064;-79
2022/06/13 07:09:54;;;;;;;0.10;0.10;;;15.30;99.90;;;;;;5060592;28;20044;-80
2022/06/13 07:12:21;;;;;;;0.20;0.20;;;15.00;99.90;;;;;;5046529;28;20045;-82
2022/06/13 07:14:48;;;;;;;0.10;0.10;;;14.70;99.90;;;;;;5068863;28;20397;-81
2022/06/13 07:17:15;;;;;;;0.00;0.00;;;14.30;99.90;;;;;;5045155;28;20044;-81
2022/06/13 07:19:44;;;;;;;0.10;0.10;;;14.20;99.90;;;;;;5066007;28;20037;-81
2022/06/13 07:22:17;;;;;;;0.10;0.10;;;14.10;99.90;;;;;;5055585;28;20048;-81
2022/06/13 07:24:44;;;;;;;0.00;0.00;;;14.10;99.90;;;;;;5063893;28;20501;-81
2022/06/13 07:27:13;;;;;;;0.00;0.00;;;14.00;99.90;;;;;;5053744;28;20089;-81
2022/06/13 07:29:41;;;;;;;0.10;0.10;;;14.10;99.90;;;;;;5067298;28;20036;-81
2022/06/13 07:32:17;;;;;;;0.10;0.10;;;14.20;99.90;;;;;;5072235;28;20406;-81
2022/06/13 07:34:47;;;;;;;0.00;0.00;;;14.40;99.90;;;;;;5060519;28;20089;-81
2022/06/13 07:40:09;;;;;;;0.08;0.08;;;14.50;99.90;;;;;;5069272;28;20087;-82
2022/06/13 07:42:41;;;;;;;0.00;0.00;;;14.70;99.90;;;;;;5087600;28;20040;-83
2022/06/13 07:45:13;;;;;;;0.00;0.00;;;14.80;99.90;;;;;;5087305;28;20041;-83
2022/06/13 07:47:39;;;;;;;0.00;0.00;;;14.90;99.90;;;;;;5087898;28;20036;-83
2022/06/13 07:50:07;;;;;;;0.08;0.08;;;14.90;99.90;;;;;;5064067;28;20045;-82
2022/06/13 07:52:33;;;;;;;0.00;0.00;;;14.80;99.90;;;;;;5055537;28;20079;-83
2022/06/13 07:55:00;;;;;;;0.00;0.00;;;14.70;99.90;;;;;;5038756;28;20076;-83
2022/06/13 07:57:27;;;;;;;0.10;0.10;;;14.60;99.90;;;;;;5055844;28;20036;-82
2022/06/13 07:59:53;;;;;;;0.17;0.17;;;14.30;99.90;;;;;;5072675;28;20036;-83
2022/06/13 08:02:20;;;;;;;0.10;0.10;;;14.30;99.90;;;;;;5072304;28;20524;-82
2022/06/13 08:04:47;;;;;;;0.08;0.08;;;14.20;99.90;;;;;;5072372;28;20067;-84
2022/06/13 08:07:16;;;;;;;0.10;0.10;;;14.20;99.90;;;;;;5088693;28;20513;-84
2022/06/13 08:09:42;;;;;;;0.00;0.00;;;14.20;99.90;;;;;;5055976;28;20045;-83
2022/06/13 08:12:12;;;;;;;0.00;0.00;;;14.10;99.90;;;;;;5077022;28;20040;-83
2022/06/13 08:14:45;;;;;;;0.10;0.10;;;14.30;99.90;;;;;;5080547;28;20044;-83
2022/06/13 08:17:13;;;;;;;0.00;0.00;;;14.40;99.90;;;;;;5044245;28;20037;-83
2022/06/13 08:19:39;;;;;;;0.05;0.05;;;14.60;99.90;;;;;;5079431;28;20700;-82
2022/06/13 08:22:06;;;;;;;0.00;0.00;;;14.60;99.90;;;;;;5049184;28;20047;-83
2022/06/13 08:24:33;;;;;;;0.10;0.03;;;14.70;99.90;;;;;;5088115;28;20527;-83
2022/06/13 08:27:00;;;;;;;0.00;0.00;;;14.60;99.90;;;;;;5039162;28;20127;-82
2022/06/13 08:29:27;;;;;;;0.00;0.00;;;14.50;99.90;;;;;;5055622;28;20537;-82
2022/06/13 08:31:54;;;;;;;0.10;0.10;;;14.50;99.90;;;;;;5055536;28;20041;-82
2022/06/13 08:34:20;;;;;;;0.00;0.00;;;14.50;99.90;;;;;;5067815;28;20045;-83
2022/06/13 08:36:47;;;;;;;0.20;0.10;;;14.50;99.90;;;;;;5088150;28;20032;-83
2022/06/13 08:39:14;;;;;;;0.10;0.10;;;14.60;99.90;;;;;;5075002;28;20032;-82
2022/06/13 08:42:05;;;;;;;0.10;0.10;;;14.60;99.90;;;;;;5075960;28;20040;-82
2022/06/13 08:44:43;;;;;;;0.10;0.10;;;14.50;99.90;;;;;;5092502;28;20037;-82
2022/06/13 08:47:37;;;;;;;0.10;0.10;;;14.50;99.90;;;;;;5074828;28;20047;-82
2022/06/13 08:50:16;;;;;;;0.20;0.13;;;14.50;99.90;;;;;;5091333;28;20044;-82
2022/06/13 08:52:55;;;;;;;0.00;0.00;;;14.60;99.90;;;;;;5075177;28;20056;-81
2022/06/13 08:55:29;;;;;;;0.10;0.10;;;14.90;99.90;;;;;;5081183;28;20036;-82
2022/06/13 08:58:38;;;;;;;0.20;0.10;;;15.20;99.90;;;;;;5092338;28;20036;-83
2022/06/13 09:01:12;;;;;;;0.00;0.00;;;15.40;99.90;;;;;;4962851;29;20059;-81
2022/06/13 09:03:47;;;;;;;0.20;0.20;;;15.60;99.90;;;;;;4973783;29;20051;-81
2022/06/13 09:06:19;;;;;;;0.00;0.00;;;15.80;99.90;;;;;;5028802;28;20063;-82
2022/06/13 09:08:55;;;;;;;0.30;0.30;;;15.90;99.90;;;;;;5081185;28;20040;-85
2022/06/13 09:11:25;;;;;;;0.65;0.38;;;16.00;99.90;;;;;;5091960;28;20040;-81
2022/06/13 09:14:09;;;;;;;0.05;0.05;;;15.90;99.90;;;;;;5074964;28;20493;-83
2022/06/13 09:16:39;;;;;;;0.00;0.00;;;15.70;99.90;;;;;;5074161;28;20043;-82
2022/06/13 09:19:27;;;;;;;0.00;0.00;;;15.50;99.90;;;;;;5074771;28;20072;-81
2022/06/13 09:22:10;;;;;;;0.00;0.00;;;15.70;99.90;;;;;;5057946;28;20041;-82
2022/06/13 09:24:55;;;;;;;0.10;0.10;;;16.10;99.90;;;;;;5091537;28;20048;-82
2022/06/13 09:27:43;;;;;;;0.43;0.10;;;16.20;99.90;;;;;;5090251;28;20044;-82
2022/06/13 09:30:17;;;;;;;0.00;0.00;;;16.20;99.90;;;;;;5090422;28;20115;-81
2022/06/13 09:32:53;;;;;;;0.10;0.10;;;16.10;99.90;;;;;;5074707;28;20044;-82
2022/06/13 09:35:21;;;;;;;;;;;16.10;99.90;;;;;;5108041;28;20101;-82
2022/06/13 09:37:56;;;;;;;0.03;0.00;;;15.90;99.90;;;;;;5091200;28;19927;-81
2022/06/13 09:40:38;;;;;;;0.00;0.00;;;16.10;99.90;;;;;;5090490;28;20123;-82
2022/06/13 09:43:13;;;;;;;0.10;0.10;;;16.30;99.90;;;;;;5074343;28;20074;-82
2022/06/13 09:45:48;;;;;;;0.00;0.00;;;16.30;99.90;;;;;;5102122;28;20131;-81
2022/06/13 09:48:33;;;;;;;0.08;0.08;;;16.40;99.90;;;;;;5074946;28;20098;-82
2022/06/13 09:51:21;;;;;;;0.00;0.00;;;16.50;99.90;;;;;;5092703;28;20048;-82
2022/06/13 09:54:09;;;;;;;1.42;0.32;;;16.70;99.90;;;;;;5090254;28;20052;-81
2022/06/13 09:56:42;;;;;;;0.10;0.10;;;16.70;99.90;;;;;;5093646;28;20063;-82
2022/06/13 09:59:32;;;;;;;0.00;0.00;;;16.70;99.90;;;;;;5084445;28;20137;-82
2022/06/13 10:02:20;;;;;;;0.25;0.20;;;16.90;99.90;;;;;;5090671;28;20052;-81
2022/06/13 10:05:00;;;;;;;0.10;0.10;;;16.90;99.90;;;;;;5073953;28;20087;-82
2022/06/13 10:07:44;;;;;;;0.08;0.08;;;17.00;99.90;;;;;;5102852;28;20075;-82
2022/06/13 10:10:26;;;;;;;0.10;0.10;;;16.80;99.90;;;;;;5090365;28;20047;-83
2022/06/13 10:13:15;;;;;;;0.13;0.00;;;16.80;99.90;;;;;;5089642;28;20072;-81
2022/06/13 10:16:00;;;;;;;0.10;0.10;;;17.10;99.90;;;;;;5089761;28;20063;-80
2022/06/13 10:18:43;;;;;;;0.00;0.00;;;17.30;99.90;;;;;;5061307;28;20052;-81
2022/06/13 10:21:22;;;;;;;0.10;0.10;;;17.30;99.90;;;;;;5053649;28;20554;-82
2022/06/13 10:24:11;;;;;;;0.10;0.10;;;17.30;99.90;;;;;;5088310;28;20101;-83
2022/06/13 10:26:38;;;;;;;1.20;0.38;;;17.40;99.90;;;;;;5088922;28;20489;-81
2022/06/13 10:29:26;;;;;;;0.10;0.10;;;17.50;99.90;;;;;;5090910;28;20102;-81
2022/06/13 10:32:13;;;;;;;0.17;0.13;;;17.40;99.90;;;;;;5093000;28;20047;-81
2022/06/13 10:34:55;;;;;;;0.20;0.20;;;17.10;99.90;;;;;;5089337;28;20032;-81
2022/06/13 10:37:32;;;;;;;0.00;0.00;;;17.30;99.90;;;;;;5072218;28;20040;-82
2022/06/13 10:40:02;;;;;;;0.00;0.00;;;17.20;99.90;;;;;;5071591;28;20032;-82
2022/06/13 10:42:31;;;;;;;0.00;0.00;;;17.30;99.90;;;;;;5066967;28;20127;-82
2022/06/13 10:45:05;;;;;;;0.10;0.10;;;17.30;99.90;;;;;;5070812;28;20036;-83
2022/06/13 10:47:50;;;;;;;0.88;0.20;;;17.10;99.90;;;;;;5063447;28;20040;-82
2022/06/13 10:50:36;;;;;;;0.60;0.10;;;17.10;99.90;;;;;;5069429;28;20044;-82
2022/06/13 10:53:15;;;;;;;0.10;0.10;;;16.80;99.90;;;;;;5048751;28;20049;-82
2022/06/13 10:55:44;;;;;;;0.00;0.00;;;17.00;99.90;;;;;;5065346;28;20072;-82
2022/06/13 10:58:13;;;;;;;0.22;0.15;;;17.10;99.90;;;;;;5060289;28;20086;-82
2022/06/13 11:00:46;;;;;;;0.00;0.00;;;17.10;99.90;;;;;;5074534;28;20036;-82
2022/06/13 11:03:16;;;;;;;0.00;0.00;;;17.00;99.90;;;;;;5053778;28;20047;-82
2022/06/13 11:06:03;;;;;;;0.10;0.10;;;16.90;99.90;;;;;;5064614;28;20045;-82
2022/06/13 11:08:31;;;;;;;0.10;0.10;;;17.20;99.90;;;;;;5089372;28;20094;-82
2022/06/13 11:11:04;;;;;;;0.22;0.10;;;17.50;99.90;;;;;;5072826;28;20040;-82
2022/06/13 11:13:37;;;;;;;0.10;0.10;;;17.60;99.90;;;;;;5071974;28;20560;-82
2022/06/13 11:22:39;;;;;;;0.00;0.00;;;17.50;99.90;;;;;;5069178;28;20509;-83
2022/06/13 11:25:19;;;;;;;0.13;0.10;;;17.20;99.90;;;;;;5061459;28;20039;-82
2022/06/13 11:28:11;;;;;;;0.20;0.17;;;17.20;99.90;;;;;;5073011;28;20055;-82
2022/06/13 11:30:49;;;;;;;0.20;0.20;;;17.30;99.90;;;;;;5089836;28;20040;-82
2022/06/13 11:33:23;;;;;;;0.03;0.03;;;17.60;99.90;;;;;;5088826;28;20040;-82
2022/06/13 11:35:53;;;;;;;1.00;0.35;;;17.80;99.90;;;;;;5086200;28;20043;-82
2022/06/13 11:38:25;;;;;;;0.75;0.30;;;17.90;99.90;;;;;;5091480;28;20119;-84
2022/06/13 11:41:18;;;;;;;0.45;0.20;;;18.30;99.90;;;;;;5097265;28;20044;-84
2022/06/13 11:44:03;;;;;;;0.10;0.10;;;18.40;99.90;;;;;;5052816;28;20044;-81
2022/06/13 11:46:35;;;;;;;0.00;0.00;;;18.80;99.90;;;;;;5092272;28;20052;-83
2022/06/13 11:49:14;;;;;;;0.35;0.22;;;19.00;99.90;;;;;;5072031;28;20036;-83
2022/06/13 11:51:56;;;;;;;0.65;0.20;;;19.10;99.90;;;;;;5088921;28;20127;-83
2022/06/13 11:54:35;;;;;;;0.10;0.10;;;19.30;99.90;;;;;;5071367;28;20136;-83
2022/06/13 11:57:30;;;;;;;0.05;0.05;;;19.40;99.90;;;;;;5080464;28;20052;-83
2022/06/13 12:00:03;;;;;;;0.57;0.30;;;19.50;99.90;;;;;;5088603;28;20044;-83
2022/06/13 12:02:39;;;;;;;0.10;0.10;;;19.10;99.90;;;;;;5102015;28;20054;-83
2022/06/13 12:05:19;;;;;;;0.10;0.10;;;18.70;99.90;;;;;;5089227;28;20047;-83
2022/06/13 12:08:00;;;;;;;0.10;0.10;;;18.20;99.90;;;;;;5082712;28;20050;-84
2022/06/13 12:10:52;;;;;;;0.15;0.10;;;18.30;99.90;;;;;;5091394;28;20090;-83
2022/06/13 12:13:20;;;;;;;0.00;0.00;;;18.30;99.90;;;;;;5072402;28;20135;-83
2022/06/13 12:16:00;;;;;;;0.05;0.05;;;18.50;99.90;;;;;;5075819;28;20036;-83
2022/06/13 12:18:51;;;;;;;0.20;0.20;;;18.80;99.90;;;;;;5089972;28;20519;-83
2022/06/13 12:21:54;;;;;;;0.00;0.00;;;18.80;99.90;;;;;;5104936;28;20053;-82
2022/06/13 12:24:42;;;;;;;0.03;0.03;;;18.90;99.90;;;;;;5037987;28;20047;-82
2022/06/13 12:27:31;;;;;;;0.10;0.10;;;18.70;99.90;;;;;;5082429;28;20047;-82
2022/06/13 12:30:25;;;;;;;0.95;0.22;;;18.80;99.90;;;;;;5092138;28;20424;-81
2022/06/13 12:33:19;;;;;;;0.00;0.00;;;18.70;99.90;;;;;;5080783;28;20036;-82
2022/06/13 12:35:59;;;;;;;0.10;0.10;;;18.90;99.90;;;;;;5078982;28;20191;-82
2022/06/13 12:38:47;;;;;;;0.57;0.30;;;19.20;99.90;;;;;;5091519;28;20546;-83
2022/06/13 12:41:49;;;;;;;0.45;0.20;;;18.90;99.90;;;;;;5074933;28;20094;-83
2022/06/13 12:44:42;;;;;;;0.00;0.00;;;19.00;99.90;;;;;;5091610;28;20032;-83
2022/06/13 12:47:30;;;;;;;0.22;0.10;;;19.00;99.90;;;;;;5056674;28;20063;-83
2022/06/13 12:50:15;;;;;;;0.10;0.10;;;19.20;99.90;;;;;;5075348;28;20119;-83
2022/06/13 12:53:00;;;;;;;0.00;0.00;;;19.30;99.90;;;;;;5074822;28;20052;-83
2022/06/13 12:55:53;;;;;;;0.32;0.20;;;18.90;99.90;;;;;;5075461;28;20044;-83
2022/06/13 12:58:44;;;;;;;0.00;0.00;;;18.60;99.90;;;;;;5074611;28;20040;-83
2022/06/13 13:01:14;;;;;;;0.00;0.00;;;18.60;99.90;;;;;;5074619;28;20043;-82
2022/06/13 13:04:16;;;;;;;0.10;0.10;;;18.40;99.90;;;;;;5074930;28;20059;-82
2022/06/13 13:07:05;;;;;;;0.10;0.10;;;18.40;99.90;;;;;;5075132;28;20405;-82
2022/06/13 13:10:02;;;;;;;0.38;0.10;;;18.60;99.90;;;;;;5091963;28;20074;-83
2022/06/13 13:12:50;;;;;;;0.00;0.00;;;18.60;99.90;;;;;;5091024;28;20051;-82
2022/06/13 13:15:41;;;;;;;0.10;0.10;;;18.60;99.90;;;;;;5091324;28;20091;-83
2022/06/13 13:18:26;;;;;;;0.00;0.00;;;18.40;99.90;;;;;;5091849;28;20048;-83
2022/06/13 13:21:12;;;;;;;0.10;0.10;;;18.30;99.90;;;;;;5090684;28;20470;-82
2022/06/13 13:23:51;;;;;;;0.00;0.00;;;18.30;99.90;;;;;;5091016;28;20131;-82
2022/06/13 13:26:47;;;;;;;0.10;0.10;;;18.60;99.90;;;;;;5091519;28;20051;-82
2022/06/13 13:29:22;;;;;;;0.00;0.00;;;18.80;99.90;;;;;;5091158;28;20497;-82
2022/06/13 13:32:07;;;;;;;0.10;0.10;;;19.00;99.90;;;;;;5091397;28;20483;-82
2022/06/13 13:34:56;;;;;;;0.08;0.08;;;18.70;99.90;;;;;;5091333;28;20127;-82
2022/06/13 13:37:45;;;;;;;0.25;0.15;;;18.40;99.90;;;;;;5087254;28;20090;-83
2022/06/13 13:40:52;;;;;;;0.00;0.00;;;18.40;99.90;;;;;;5074603;28;20375;-82
2022/06/13 13:43:34;;;;;;;0.00;0.00;;;18.60;99.90;;;;;;5074026;28;20386;-82
2022/06/13 13:46:08;;;;;;;1.55;0.20;;;18.50;99.90;;;;;;5074338;28;20489;-83
2022/06/13 13:49:00;;;;;;;0.03;0.03;;;18.70;99.90;;;;;;5090869;28;20440;-82
2022/06/13 13:51:49;;;;;;;0.00;0.00;;;18.90;99.90;;;;;;5074241;28;20052;-82
2022/06/13 13:54:22;;;;;;;0.40;0.10;;;18.90;99.90;;;;;;5074380;28;20440;-82
2022/06/13 13:57:02;;;;;;;0.10;0.10;;;18.90;99.90;;;;;;5074446;28;20048;-82